Time;durP1;ratioP1;P1;durP2;ratioP2;P2;SDS_P1;SDS_P2;PMS_P1;PMS_P2;Temp;Humidity;BMP_temperature;BMP_pressure;BME280_temperature;BME280_humidity;BME280_pressure;Samples;Min_cycle;Max_cycle;Signal;HPM_P1;HPM_P2
2022/06/13 00:00:11;;;;;;;2.38;1.27;;;19.80;57.20;;;;;;5112137;28;20040;-70
2022/06/13 00:02:37;;;;;;;2.13;0.60;;;19.80;57.30;;;;;;5111203;28;20046;-68
2022/06/13 00:05:06;;;;;;;1.65;0.47;;;19.80;57.20;;;;;;5113141;28;20110;-71
2022/06/13 00:07:33;;;;;;;1.67;0.40;;;19.80;57.30;;;;;;5113072;28;20085;-70
2022/06/13 00:09:59;;;;;;;1.83;0.60;;;19.80;57.30;;;;;;5111887;28;20472;-70
2022/06/13 00:12:26;;;;;;;1.70;0.70;;;19.80;57.30;;;;;;5111567;28;20051;-70
2022/06/13 00:14:51;;;;;;;2.50;0.60;;;19.80;57.30;;;;;;5111987;28;20082;-71
2022/06/13 00:17:18;;;;;;;1.95;0.63;;;19.80;57.30;;;;;;5111474;28;20463;-71
2022/06/13 00:19:43;;;;;;;1.83;0.60;;;19.80;57.30;;;;;;5111731;28;20104;-71
2022/06/13 00:22:09;;;;;;;2.53;0.70;;;19.70;57.30;;;;;;5111525;28;20040;-72
2022/06/13 00:24:36;;;;;;;3.47;1.02;;;19.70;57.30;;;;;;5112797;28;20101;-70
2022/06/13 00:27:02;;;;;;;2.38;0.90;;;19.70;57.30;;;;;;5111682;28;20047;-69
2022/06/13 00:29:28;;;;;;;2.65;0.85;;;19.70;57.30;;;;;;5111308;28;20126;-70
2022/06/13 00:31:54;;;;;;;3.63;0.95;;;19.80;57.40;;;;;;5111535;28;20147;-70
2022/06/13 00:34:19;;;;;;;2.22;1.52;;;19.70;57.30;;;;;;5111131;28;20097;-72
2022/06/13 00:36:45;;;;;;;3.70;1.02;;;19.70;57.30;;;;;;5111532;28;20042;-70
2022/06/13 00:39:11;;;;;;;2.17;0.90;;;19.70;57.30;;;;;;5112454;28;20051;-70
2022/06/13 00:41:39;;;;;;;2.88;0.77;;;19.70;57.30;;;;;;5111446;28;20478;-74
2022/06/13 00:46:58;;;;;;;1.65;0.70;;;19.70;57.40;;;;;;5130333;27;20383;-71
2022/06/13 00:52:17;;;;;;;3.22;1.08;;;19.60;57.30;;;;;;5130288;27;20399;-72
2022/06/13 00:54:46;;;;;;;1.27;0.68;;;19.60;57.40;;;;;;5130731;27;20041;-70
2022/06/13 00:57:18;;;;;;;2.95;1.08;;;19.70;57.40;;;;;;5128902;28;20031;-69
2022/06/13 00:59:45;;;;;;;2.60;0.73;;;19.70;57.40;;;;;;5129135;28;20035;-72
2022/06/13 01:02:11;;;;;;;2.58;0.80;;;19.70;57.50;;;;;;5130575;27;20043;-69
2022/06/13 01:04:39;;;;;;;2.40;0.73;;;19.70;57.50;;;;;;5129038;27;20063;-72
2022/06/13 01:07:05;;;;;;;1.98;0.75;;;19.70;57.50;;;;;;5128760;27;20529;-71
2022/06/13 01:12:18;;;;;;;2.53;0.98;;;19.60;57.50;;;;;;5129805;27;20055;-70
2022/06/13 01:26:36;;;;;;;2.97;1.00;;;19.60;57.60;;;;;;5129716;27;20462;-71
2022/06/13 01:43:37;;;;;;;2.60;1.10;;;19.60;57.60;;;;;;5151662;27;1160001;-72
2022/06/13 01:46:10;;;;;;;2.40;0.90;;;19.70;57.40;;;;;;5171778;27;20039;-71
2022/06/13 01:56:49;;;;;;;3.67;1.17;;;19.60;57.50;;;;;;5130247;27;20763;-71
2022/06/13 01:59:22;;;;;;;4.05;1.08;;;19.50;57.70;;;;;;5129028;28;20035;-70
2022/06/13 02:01:56;;;;;;;1.85;0.80;;;19.60;57.80;;;;;;5129188;28;20051;-71
2022/06/13 02:04:37;;;;;;;2.35;0.88;;;19.50;57.70;;;;;;5129092;28;20057;-70
2022/06/13 02:07:15;;;;;;;4.38;1.05;;;19.50;57.80;;;;;;5130163;27;20073;-70
2022/06/13 02:09:58;;;;;;;1.73;0.82;;;19.50;57.80;;;;;;5130110;27;20142;-70
2022/06/13 02:12:28;;;;;;;3.70;0.82;;;19.50;57.90;;;;;;5128994;28;20039;-71
2022/06/13 02:15:02;;;;;;;2.03;0.97;;;19.50;57.90;;;;;;5129174;27;20043;-69
2022/06/13 02:17:32;;;;;;;2.92;1.10;;;19.50;57.90;;;;;;5128630;28;20039;-70
2022/06/13 02:20:05;;;;;;;2.67;0.77;;;19.50;57.90;;;;;;5128905;28;20118;-69
2022/06/13 02:25:28;;;;;;;1.67;0.63;;;19.50;57.90;;;;;;5154924;27;1159967;-70
2022/06/13 02:28:01;;;;;;;2.17;1.02;;;19.50;58.00;;;;;;5153280;27;20310;-70
2022/06/13 02:30:32;;;;;;;4.32;0.95;;;19.50;58.00;;;;;;5152951;27;20053;-74
2022/06/13 02:33:06;;;;;;;2.42;0.77;;;19.50;58.00;;;;;;5152975;27;20042;-70
2022/06/13 02:38:24;;;;;;;2.95;0.80;;;19.50;58.00;;;;;;5130249;27;20416;-70
2022/06/13 02:40:56;;;;;;;2.55;0.88;;;19.50;58.10;;;;;;5130445;27;20462;-70
2022/06/13 02:46:14;;;;;;;3.55;1.35;;;19.50;58.10;;;;;;5130874;27;20387;-68
2022/06/13 02:54:26;;;;;;;3.25;0.85;;;19.50;58.20;;;;;;5089345;28;20455;-71
2022/06/13 02:57:42;;;;;;;2.92;1.60;;;19.40;58.20;;;;;;5089356;28;20035;-70
2022/06/13 03:06:40;;;;;;;2.15;0.60;;;19.40;58.30;;;;;;5109627;27;20695;-70
2022/06/13 03:09:14;;;;;;;3.72;1.33;;;19.40;58.30;;;;;;5125369;28;20122;-71
2022/06/13 03:12:02;;;;;;;2.55;1.00;;;19.40;58.30;;;;;;5091678;28;20428;-70
2022/06/13 03:22:55;;;;;;;3.08;0.90;;;19.40;58.30;;;;;;5130334;27;20378;-70
2022/06/13 03:31:08;;;;;;;3.15;1.30;;;19.40;58.50;;;;;;5130197;27;20387;-70
2022/06/13 03:33:41;;;;;;;2.88;1.35;;;19.40;58.40;;;;;;5129365;28;20039;-71
2022/06/13 03:41:36;;;;;;;2.70;0.93;;;19.30;58.50;;;;;;5130256;27;20403;-70
2022/06/13 03:44:20;;;;;;;2.58;1.27;;;19.40;58.50;;;;;;5128941;28;20130;-70
2022/06/13 03:52:13;;;;;;;2.38;1.23;;;19.30;58.60;;;;;;5130164;27;20383;-70
2022/06/13 03:54:54;;;;;;;2.47;0.95;;;19.30;58.60;;;;;;5129044;28;20504;-71
2022/06/13 04:00:11;;;;;;;3.25;1.20;;;19.30;58.70;;;;;;5130349;27;20353;-70
2022/06/13 04:02:40;;;;;;;3.40;1.30;;;19.30;58.70;;;;;;5128934;28;20046;-70
2022/06/13 04:05:14;;;;;;;2.47;1.40;;;19.30;58.70;;;;;;5146476;27;20039;-70
2022/06/13 04:07:41;;;;;;;5.32;1.17;;;19.30;58.70;;;;;;5129247;28;20035;-71
2022/06/13 04:10:14;;;;;;;3.58;1.30;;;19.30;58.80;;;;;;5128810;28;20050;-70
2022/06/13 04:24:28;;;;;;;4.75;1.40;;;19.40;58.90;;;;;;5130297;27;20112;-71
2022/06/13 04:29:54;;;;;;;2.47;1.25;;;19.30;58.90;;;;;;5109645;27;20296;-69
2022/06/13 04:32:28;;;;;;;4.30;1.10;;;19.30;58.90;;;;;;5109746;28;20100;-71
2022/06/13 04:34:58;;;;;;;3.38;1.10;;;19.40;59.00;;;;;;5109869;28;20043;-71
2022/06/13 04:37:24;;;;;;;2.88;1.52;;;19.30;58.90;;;;;;5108637;28;20067;-69
2022/06/13 04:39:58;;;;;;;3.33;1.10;;;19.30;58.90;;;;;;5108565;28;20046;-70
2022/06/13 04:42:25;;;;;;;2.55;1.65;;;19.30;58.90;;;;;;5109662;28;20111;-70
2022/06/13 04:44:51;;;;;;;3.80;1.58;;;19.30;58.90;;;;;;5109635;28;20032;-70
2022/06/13 04:47:18;;;;;;;3.20;1.40;;;19.30;58.90;;;;;;5108015;28;20109;-71
2022/06/13 04:49:53;;;;;;;3.85;1.45;;;19.30;58.90;;;;;;5108445;28;20044;-70
2022/06/13 04:52:25;;;;;;;3.38;1.27;;;19.40;59.00;;;;;;5108216;28;20035;-67
2022/06/13 04:54:59;;;;;;;2.20;1.25;;;19.40;59.00;;;;;;5107561;28;20092;-70
2022/06/13 04:57:26;;;;;;;3.05;1.30;;;19.40;59.00;;;;;;5108206;28;20058;-69
2022/06/13 04:59:52;;;;;;;2.38;1.00;;;19.40;59.00;;;;;;5109510;28;20036;-71
2022/06/13 05:02:30;;;;;;;2.55;1.02;;;19.30;58.90;;;;;;5108299;28;20384;-69
2022/06/13 05:04:56;;;;;;;4.18;1.35;;;19.30;59.00;;;;;;5109071;28;20048;-70
2022/06/13 05:07:22;;;;;;;2.92;1.17;;;19.40;59.10;;;;;;5107777;28;20512;-70
2022/06/13 05:09:52;;;;;;;4.05;1.23;;;19.40;59.00;;;;;;5107989;28;20039;-70
2022/06/13 05:18:07;;;;;;;4.55;1.13;;;19.40;59.00;;;;;;5130097;27;20771;-70
2022/06/13 05:26:01;;;;;;;3.42;1.00;;;19.40;58.90;;;;;;5130675;27;20426;-70
2022/06/13 05:28:30;;;;;;;2.25;1.00;;;19.40;58.80;;;;;;5128084;28;20066;-75
2022/06/13 05:30:58;;;;;;;3.60;1.15;;;19.40;58.80;;;;;;5128358;28;20035;-72
2022/06/13 05:33:28;;;;;;;2.17;0.50;;;19.40;58.70;;;;;;5128206;28;20542;-73
2022/06/13 05:35:57;;;;;;;2.80;1.13;;;19.50;59.00;;;;;;5128400;28;20440;-72
2022/06/13 05:38:36;;;;;;;2.00;0.60;;;19.50;59.10;;;;;;5128186;28;20506;-73
2022/06/13 05:41:02;;;;;;;2.80;0.45;;;19.50;59.20;;;;;;5128196;28;20543;-73
2022/06/13 05:43:28;;;;;;;1.80;0.63;;;19.50;59.00;;;;;;5127962;27;20039;-74
2022/06/13 05:45:54;;;;;;;1.70;0.57;;;19.50;58.80;;;;;;5127615;28;20043;-73
2022/06/13 05:48:21;;;;;;;1.13;0.45;;;19.50;58.80;;;;;;5125936;28;20080;-71
2022/06/13 05:50:47;;;;;;;3.55;1.17;;;19.60;58.80;;;;;;5125472;27;20046;-69
2022/06/13 05:53:16;;;;;;;2.72;0.50;;;19.60;58.70;;;;;;5109295;27;20039;-70
2022/06/13 05:55:45;;;;;;;3.22;0.98;;;19.60;59.40;;;;;;5122176;27;20050;-71
2022/06/13 05:58:12;;;;;;;2.53;0.75;;;19.60;58.70;;;;;;5125167;27;20394;-71
2022/06/13 06:00:43;;;;;;;2.33;0.70;;;19.50;58.60;;;;;;5122542;27;20050;-71
2022/06/13 06:03:09;;;;;;;1.55;0.55;;;19.60;58.50;;;;;;5119321;28;20078;-71
2022/06/13 06:05:35;;;;;;;3.08;0.50;;;19.60;58.50;;;;;;5128154;27;20066;-72
2022/06/13 06:08:00;;;;;;;1.52;0.52;;;19.60;58.40;;;;;;5117716;28;20123;-71
2022/06/13 06:10:31;;;;;;;2.55;0.70;;;19.60;58.90;;;;;;5113439;28;20043;-72
2022/06/13 06:12:57;;;;;;;3.00;0.85;;;19.70;58.20;;;;;;5122003;28;20118;-71
2022/06/13 06:15:23;;;;;;;1.55;0.47;;;19.70;58.10;;;;;;5122565;28;20131;-72
2022/06/13 06:17:48;;;;;;;1.85;0.60;;;19.60;58.00;;;;;;5121808;28;20050;-72
2022/06/13 06:20:18;;;;;;;2.80;0.60;;;19.60;57.90;;;;;;5111881;28;20665;-72
2022/06/13 06:22:44;;;;;;;1.67;0.55;;;19.70;57.90;;;;;;5116139;28;20047;-71
2022/06/13 06:25:10;;;;;;;3.53;0.70;;;19.70;57.90;;;;;;5120406;28;20062;-72
2022/06/13 06:27:35;;;;;;;3.50;0.85;;;19.70;57.90;;;;;;5119996;28;20561;-71
2022/06/13 06:30:01;;;;;;;2.03;0.40;;;19.70;57.80;;;;;;5120068;27;20039;-71
2022/06/13 06:32:27;;;;;;;1.92;0.65;;;19.70;57.80;;;;;;5120044;27;20085;-72
2022/06/13 06:34:52;;;;;;;2.30;0.80;;;19.70;57.60;;;;;;5110522;28;20058;-72
2022/06/13 06:37:18;;;;;;;3.13;0.70;;;19.70;57.60;;;;;;5096929;28;20177;-72
2022/06/13 06:39:44;;;;;;;1.60;0.55;;;19.70;57.50;;;;;;5096256;28;20479;-72
2022/06/13 06:42:10;;;;;;;2.85;0.63;;;19.70;57.50;;;;;;5097803;28;20058;-73
2022/06/13 06:44:35;;;;;;;8.15;0.70;;;19.80;57.30;;;;;;5090661;28;20039;-72
2022/06/13 06:47:01;;;;;;;2.80;0.70;;;19.80;57.30;;;;;;5098508;28;20534;-72
2022/06/13 06:49:34;;;;;;;4.55;1.27;;;19.80;57.20;;;;;;5095982;28;20767;-72
2022/06/13 06:52:01;;;;;;;3.47;0.70;;;19.80;57.90;;;;;;5102426;28;20051;-73
2022/06/13 07:00:02;;;;;;;1.88;0.50;;;19.90;56.70;;;;;;5094456;28;20055;-73
2022/06/13 07:02:29;;;;;;;2.67;0.52;;;19.90;56.70;;;;;;5095319;28;20123;-73
2022/06/13 07:05:02;;;;;;;4.43;1.02;;;19.90;56.60;;;;;;5096180;27;20384;-73
2022/06/13 07:07:28;;;;;;;1.52;0.50;;;19.90;56.60;;;;;;5094995;27;20047;-73
2022/06/13 07:09:57;;;;;;;2.35;0.30;;;19.90;56.70;;;;;;5094792;28;20051;-79
2022/06/13 07:12:23;;;;;;;1.65;0.60;;;19.90;56.70;;;;;;5093766;28;20044;-79
2022/06/13 07:14:49;;;;;;;3.47;0.70;;;19.90;56.80;;;;;;5082192;27;20047;-70
2022/06/13 07:17:15;;;;;;;2.13;0.50;;;19.80;56.70;;;;;;5099246;27;20373;-70
2022/06/13 07:19:44;;;;;;;4.53;0.50;;;19.80;56.80;;;;;;5092305;28;20035;-70
2022/06/13 07:22:15;;;;;;;2.88;0.50;;;19.80;56.90;;;;;;5083274;28;20039;-72
2022/06/13 07:24:40;;;;;;;5.43;0.50;;;19.80;57.00;;;;;;5080806;28;20048;-71
2022/06/13 07:27:06;;;;;;;2.38;0.32;;;19.80;57.10;;;;;;5092122;28;20066;-73
2022/06/13 07:29:32;;;;;;;3.17;0.68;;;19.80;57.10;;;;;;5089363;28;20125;-67
2022/06/13 07:32:05;;;;;;;2.65;0.47;;;19.70;57.20;;;;;;5090974;28;20050;-72
2022/06/13 07:34:34;;;;;;;3.88;0.55;;;19.70;57.20;;;;;;5087624;28;20039;-72
2022/06/13 07:37:02;;;;;;;2.33;0.30;;;19.70;57.30;;;;;;5089297;28;20047;-73
2022/06/13 07:39:28;;;;;;;2.33;0.30;;;19.70;57.40;;;;;;5089363;28;20631;-72
2022/06/13 07:41:54;;;;;;;2.30;0.52;;;19.70;57.40;;;;;;5088895;27;20040;-71
2022/06/13 07:44:27;;;;;;;3.30;0.43;;;19.60;57.30;;;;;;5087548;27;20040;-76
2022/06/13 07:46:54;;;;;;;1.65;0.40;;;19.60;57.30;;;;;;5088916;27;20483;-72
2022/06/13 07:49:21;;;;;;;3.38;0.60;;;19.70;57.80;;;;;;5092550;27;20044;-73
2022/06/13 07:51:47;;;;;;;6.07;1.23;;;19.70;57.90;;;;;;5094680;28;20085;-74
2022/06/13 07:54:13;;;;;;;4.72;0.40;;;19.70;57.90;;;;;;5089439;28;20051;-75
2022/06/13 07:56:39;;;;;;;5.57;0.40;;;19.70;57.90;;;;;;5090492;28;20044;-73
2022/06/13 07:59:07;;;;;;;2.22;0.38;;;19.70;58.00;;;;;;5106843;27;20096;-72
2022/06/13 08:01:33;;;;;;;2.97;0.55;;;19.70;58.00;;;;;;5090851;27;20441;-71
2022/06/13 08:03:58;;;;;;;4.22;0.50;;;19.60;57.80;;;;;;5095598;28;20070;-73
2022/06/13 08:06:25;;;;;;;1.95;0.38;;;19.60;57.80;;;;;;5088521;27;20438;-71
2022/06/13 08:08:51;;;;;;;1.92;0.45;;;19.60;57.80;;;;;;5093180;27;20039;-73
2022/06/13 08:11:21;;;;;;;2.53;0.55;;;19.60;57.80;;;;;;5096748;28;20212;-72
2022/06/13 08:13:50;;;;;;;1.60;0.40;;;19.70;57.80;;;;;;5090647;28;20069;-75
2022/06/13 08:16:16;;;;;;;2.33;0.40;;;19.70;57.80;;;;;;5101404;27;20072;-73
2022/06/13 08:18:44;;;;;;;2.85;0.60;;;19.70;57.60;;;;;;5093569;28;20075;-72
2022/06/13 08:21:11;;;;;;;3.28;0.43;;;19.80;57.60;;;;;;5086648;28;20438;-73
2022/06/13 08:23:37;;;;;;;1.52;0.32;;;19.80;57.40;;;;;;5087666;28;20039;-72
2022/06/13 08:26:03;;;;;;;1.73;0.38;;;19.80;57.20;;;;;;5086255;28;20786;-73
2022/06/13 08:28:29;;;;;;;2.60;0.50;;;19.90;57.20;;;;;;5091109;28;20058;-73
2022/06/13 08:30:59;;;;;;;2.03;0.20;;;19.90;57.10;;;;;;5100253;27;20109;-76
2022/06/13 08:33:25;;;;;;;1.35;0.40;;;19.90;57.10;;;;;;5096039;28;20043;-75
2022/06/13 08:35:52;;;;;;;1.15;0.30;;;19.90;57.10;;;;;;5090926;28;20043;-75
2022/06/13 08:38:18;;;;;;;3.13;0.40;;;19.90;57.10;;;;;;5090044;28;20044;-74
2022/06/13 08:54:37;;;;;;;2.10;0.30;;;19.80;57.10;;;;;;5077754;27;20140;-73
2022/06/13 08:57:11;;;;;;;4.30;0.30;;;20.10;59.00;;;;;;5076848;28;20064;-72
2022/06/13 09:02:25;;;;;;;5.35;0.57;;;20.30;59.00;;;;;;5067424;27;20434;-71
2022/06/13 09:05:01;;;;;;;2.75;0.20;;;20.80;57.40;;;;;;5071253;28;20048;-71
2022/06/13 09:07:39;;;;;;;3.10;0.38;;;21.20;56.70;;;;;;5070156;28;20043;-72
2022/06/13 09:10:17;;;;;;;2.25;0.30;;;21.50;56.00;;;;;;5064033;28;20036;-75
2022/06/13 09:13:00;;;;;;;1.30;0.20;;;21.80;55.30;;;;;;5066945;28;20040;-75
2022/06/13 09:15:35;;;;;;;4.25;0.60;;;22.00;54.80;;;;;;5064753;28;20609;-74
2022/06/13 09:18:25;;;;;;;3.92;0.50;;;22.20;54.10;;;;;;5066742;28;20036;-74
2022/06/13 09:21:11;;;;;;;;;;;22.40;53.70;;;;;;5073592;28;20079;-74
2022/06/13 09:26:27;;;;;;;2.55;0.30;;;22.30;53.00;;;;;;5069203;27;20474;-76
2022/06/13 09:29:06;;;;;;;1.48;0.20;;;22.20;53.20;;;;;;5050336;28;20661;-77
2022/06/13 09:31:39;;;;;;;3.63;0.20;;;22.10;53.30;;;;;;5054130;28;20119;-77
2022/06/13 09:34:11;;;;;;;3.15;0.40;;;21.90;53.50;;;;;;5052935;28;20102;-73
2022/06/13 09:36:46;;;;;;;3.03;0.20;;;21.80;53.60;;;;;;5051775;28;20045;-77
2022/06/13 09:39:12;;;;;;;1.58;0.22;;;21.70;53.80;;;;;;5058946;28;20049;-73
2022/06/13 09:44:51;;;;;;;1.92;0.13;;;21.70;53.80;;;;;;5113027;27;20384;-73
2022/06/13 09:47:56;;;;;;;2.25;0.30;;;21.90;53.10;;;;;;5108550;27;20035;-74
2022/06/13 09:53:34;;;;;;;2.40;0.20;;;21.90;52.70;;;;;;5099436;27;20653;-76
2022/06/13 09:56:03;;;;;;;;;;;21.80;52.90;;;;;;5111894;27;20040;-74
2022/06/13 10:01:33;;;;;;;1.65;0.30;;;21.50;53.20;;;;;;5105627;27;20441;-72
2022/06/13 10:04:30;;;;;;;1.27;0.20;;;21.50;53.30;;;;;;5102077;28;20055;-71
2022/06/13 10:07:06;;;;;;;1.77;0.38;;;21.50;53.30;;;;;;5096488;28;20036;-66
2022/06/13 10:15:18;;;;;;;2.83;0.20;;;21.60;53.00;;;;;;5077590;27;20664;-74
2022/06/13 10:20:46;;;;;;;2.67;0.30;;;21.50;52.80;;;;;;5101013;27;20459;-73
2022/06/13 10:26:31;;;;;;;1.83;0.20;;;21.50;52.70;;;;;;5094647;27;20435;-72
2022/06/13 10:34:59;;;;;;;2.92;0.40;;;21.60;52.70;;;;;;5113213;27;1188843;-74
2022/06/13 10:40:30;;;;;;;3.70;0.22;;;21.40;52.50;;;;;;5055276;27;20508;-73
2022/06/13 10:42:57;;;;;;;1.23;0.20;;;21.40;52.40;;;;;;5037922;28;20041;-73
2022/06/13 10:45:23;;;;;;;3.00;0.30;;;21.40;52.50;;;;;;5052238;28;20041;-71
2022/06/13 10:53:16;;;;;;;4.28;0.30;;;21.40;52.40;;;;;;5047481;28;20465;-71
2022/06/13 10:55:43;;;;;;;3.30;0.10;;;21.30;52.10;;;;;;5044353;28;20049;-72
2022/06/13 11:01:13;;;;;;;3.10;0.20;;;21.30;52.20;;;;;;5053121;27;20460;-74
2022/06/13 11:03:42;;;;;;;2.90;0.20;;;21.30;52.30;;;;;;5040700;28;20053;-66
2022/06/13 11:06:21;;;;;;;3.33;0.40;;;21.30;52.30;;;;;;5046547;28;20041;-71
2022/06/13 11:08:57;;;;;;;0.95;0.20;;;21.30;52.30;;;;;;5050274;28;20516;-72
2022/06/13 11:11:31;;;;;;;2.75;0.25;;;21.30;52.20;;;;;;5028921;28;20572;-70
2022/06/13 11:13:56;;;;;;;2.53;0.30;;;21.30;52.10;;;;;;5028327;28;20048;-70
2022/06/13 11:22:45;;;;;;;3.67;0.50;;;21.30;52.20;;;;;;5030314;28;20103;-72
2022/06/13 11:28:09;;;;;;;2.63;0.32;;;21.30;52.20;;;;;;5112139;27;1353552;-72
2022/06/13 11:36:26;;;;;;;1.15;0.10;;;21.30;52.20;;;;;;5083676;27;20514;-75
2022/06/13 11:39:02;;;;;;;2.42;0.60;;;21.20;52.20;;;;;;5091126;28;20078;-71
2022/06/13 11:41:45;;;;;;;1.73;0.30;;;21.20;52.40;;;;;;5054074;28;20491;-71
2022/06/13 11:54:55;;;;;;;2.20;0.30;;;21.20;52.20;;;;;;5089608;27;20517;-73
2022/06/13 12:13:48;;;;;;;3.83;0.30;;;21.30;52.20;;;;;;5075156;27;21145;-70
2022/06/13 12:45:20;;;;;;;1.92;0.22;;;21.40;52.60;;;;;;5096625;27;1352883;-74
2022/06/13 12:48:26;;;;;;;1.80;0.20;;;21.40;52.60;;;;;;5114943;27;20049;-75
2022/06/13 12:51:32;;;;;;;2.90;0.22;;;21.50;52.60;;;;;;5128038;27;20079;-70
2022/06/13 12:57:02;;;;;;;3.53;0.30;;;21.50;52.60;;;;;;5064775;27;20461;-70
2022/06/13 13:13:56;;;;;;;2.97;0.30;;;21.60;52.30;;;;;;5083237;27;20360;-69
2022/06/13 13:21:52;;;;;;;3.80;0.25;;;21.80;50.80;;;;;;5081662;28;20363;-70
2022/06/13 13:27:21;;;;;;;1.88;0.30;;;21.80;49.70;;;;;;5122638;27;20398;-70
2022/06/13 13:33:10;;;;;;;2.97;0.30;;;21.80;49.30;;;;;;5123733;27;20365;-70
2022/06/13 13:36:00;;;;;;;1.77;0.35;;;21.80;48.90;;;;;;5103413;28;20103;-67
2022/06/13 13:38:34;;;;;;;3.67;0.55;;;21.90;49.00;;;;;;5105732;28;20054;-68
2022/06/13 13:41:06;;;;;;;1.75;0.20;;;21.90;50.20;;;;;;5112598;28;20027;-70
2022/06/13 13:46:24;;;;;;;3.30;0.20;;;21.90;49.50;;;;;;5114678;27;20473;-72
2022/06/13 13:48:56;;;;;;;2.50;0.25;;;21.90;49.60;;;;;;5090257;28;20055;-69
2022/06/13 13:54:24;;;;;;;2.50;0.30;;;21.90;49.90;;;;;;5064894;28;20452;-72
2022/06/13 13:57:06;;;;;;;3.25;0.30;;;21.90;50.40;;;;;;5070598;28;20136;-75
2022/06/13 13:59:38;;;;;;;3.45;0.20;;;21.90;49.50;;;;;;5064718;28;20558;-73
2022/06/13 14:10:21;;;;;;;3.45;0.40;;;21.90;49.90;;;;;;5084057;27;20418;-68
2022/06/13 14:24:00;;;;;;;2.03;0.30;;;21.90;49.30;;;;;;5071612;28;20748;-69
2022/06/13 14:26:35;;;;;;;4.78;0.28;;;22.00;49.90;;;;;;5062970;28;20064;-66
2022/06/13 14:29:08;;;;;;;3.03;0.30;;;22.00;50.00;;;;;;5060946;28;20037;-69
2022/06/13 14:31:56;;;;;;;1.45;0.35;;;22.00;49.70;;;;;;5063997;28;20052;-69
2022/06/13 14:35:19;;;;;;;4.95;0.50;;;21.90;49.60;;;;;;5065236;28;20622;-68
2022/06/13 14:40:40;;;;;;;3.03;0.25;;;21.90;49.30;;;;;;5154396;27;1154256;-67
2022/06/13 14:43:31;;;;;;;2.30;0.30;;;21.90;49.60;;;;;;5170430;27;20125;-69
2022/06/13 14:46:04;;;;;;;2.67;0.47;;;21.90;49.80;;;;;;5131325;27;20043;-69
2022/06/13 14:53:58;;;;;;;6.55;0.73;;;21.90;49.90;;;;;;5088741;27;20389;-69
2022/06/13 14:59:08;;;;;;;1.67;0.20;;;21.90;50.10;;;;;;5086937;27;20363;-68
2022/06/13 15:01:38;;;;;;;3.05;0.25;;;21.80;49.90;;;;;;5078278;28;20051;-68
2022/06/13 15:12:28;;;;;;;1.67;0.30;;;21.80;48.90;;;;;;5130315;27;20759;-68
2022/06/13 15:15:03;;;;;;;3.47;0.20;;;21.80;48.90;;;;;;5128981;28;20135;-69
2022/06/13 15:17:33;;;;;;;2.03;0.20;;;21.80;49.00;;;;;;5127328;28;20036;-68
2022/06/13 15:20:01;;;;;;;3.47;0.20;;;21.70;48.80;;;;;;5127141;28;20046;-68
2022/06/13 15:22:33;;;;;;;2.45;0.32;;;21.70;48.90;;;;;;5128076;28;20464;-72
2022/06/13 15:25:02;;;;;;;41.80;5.88;;;21.70;48.60;;;;;;5128733;28;20043;-72
2022/06/13 15:27:28;;;;;;;16.73;2.35;;;21.70;48.90;;;;;;5128098;28;20067;-72
2022/06/13 15:32:38;;;;;;;12.65;1.10;;;21.70;49.00;;;;;;5089077;28;20417;-70
2022/06/13 15:35:15;;;;;;;10.77;0.60;;;21.70;49.00;;;;;;5087617;28;20032;-69
2022/06/13 15:37:44;;;;;;;5.45;0.90;;;21.60;48.80;;;;;;5087751;28;20035;-69
2022/06/13 15:40:20;;;;;;;9.55;0.65;;;21.60;49.00;;;;;;5086556;28;20578;-69
2022/06/13 15:42:47;;;;;;;9.57;0.77;;;21.60;49.00;;;;;;5103386;28;20044;-70
2022/06/13 15:45:14;;;;;;;8.63;0.50;;;21.60;49.20;;;;;;5087520;28;20583;-69
2022/06/13 15:47:45;;;;;;;10.07;0.90;;;21.60;49.30;;;;;;5088076;28;20119;-69
2022/06/13 15:50:20;;;;;;;4.43;0.60;;;21.60;49.20;;;;;;5088960;28;20399;-69
2022/06/13 15:52:48;;;;;;;5.18;1.42;;;21.60;49.30;;;;;;5088103;28;20040;-69
2022/06/13 15:55:17;;;;;;;7.68;0.98;;;21.60;49.20;;;;;;5087932;28;20052;-70
2022/06/13 15:57:51;;;;;;;10.77;1.15;;;21.70;49.00;;;;;;5087563;28;20095;-70
2022/06/13 16:03:13;;;;;;;5.07;0.43;;;21.70;48.90;;;;;;5154816;27;1167231;-69
2022/06/13 16:05:39;;;;;;;3.53;0.65;;;21.80;48.90;;;;;;5153177;27;20482;-70
2022/06/13 16:08:14;;;;;;;3.60;0.40;;;21.80;48.80;;;;;;5153059;27;20504;-74
2022/06/13 16:10:45;;;;;;;2.78;0.20;;;21.80;48.80;;;;;;5152573;27;20042;-75
2022/06/13 16:13:22;;;;;;;3.55;0.30;;;21.80;48.60;;;;;;5152867;27;20051;-70
2022/06/13 16:15:48;;;;;;;1.02;0.10;;;21.80;48.50;;;;;;5153041;27;20050;-70
2022/06/13 16:18:41;;;;;;;2.22;0.20;;;21.80;48.60;;;;;;5152745;27;20494;-70
2022/06/13 16:21:11;;;;;;;2.42;0.20;;;21.80;48.50;;;;;;5150241;27;20049;-69
2022/06/13 16:23:41;;;;;;;2.72;0.32;;;21.80;48.60;;;;;;5138147;27;20531;-69
2022/06/13 16:26:07;;;;;;;1.83;0.20;;;21.70;48.60;;;;;;5148951;27;20607;-69
2022/06/13 16:28:36;;;;;;;1.77;0.20;;;21.70;48.70;;;;;;5150480;27;20043;-69
2022/06/13 16:31:03;;;;;;;2.38;0.20;;;21.70;48.80;;;;;;5150162;27;20061;-70
2022/06/13 16:33:33;;;;;;;2.05;0.20;;;21.70;48.90;;;;;;5131766;27;20050;-69
2022/06/13 16:36:04;;;;;;;3.25;0.95;;;21.60;48.90;;;;;;5168936;27;20046;-69
2022/06/13 16:38:48;;;;;;;2.38;0.30;;;21.60;49.00;;;;;;5169586;27;20057;-69
2022/06/13 16:41:37;;;;;;;2.67;0.40;;;21.60;49.00;;;;;;5169540;27;20038;-69
2022/06/13 16:44:07;;;;;;;4.00;0.22;;;21.50;48.90;;;;;;5157827;27;20038;-69
2022/06/13 16:46:51;;;;;;;3.13;0.10;;;21.50;49.20;;;;;;5131849;27;20104;-69
2022/06/13 16:49:48;;;;;;;1.83;0.30;;;21.50;49.20;;;;;;5148750;27;20126;-70
2022/06/13 16:55:06;;;;;;;3.83;0.38;;;21.50;49.30;;;;;;5130248;27;20392;-69
2022/06/13 17:03:15;;;;;;;1.35;0.30;;;21.40;49.20;;;;;;5089695;27;20386;-69
2022/06/13 17:08:26;;;;;;;2.78;0.30;;;21.30;49.60;;;;;;5130286;27;20754;-68
2022/06/13 17:16:11;;;;;;;1.38;0.25;;;21.20;50.60;;;;;;5130320;27;20399;-68
2022/06/13 17:18:41;;;;;;;3.28;0.20;;;21.20;49.90;;;;;;5128844;28;20075;-68
2022/06/13 17:21:10;;;;;;;2.35;0.10;;;21.20;49.90;;;;;;5128840;27;20035;-68
2022/06/13 17:23:37;;;;;;;1.50;0.20;;;21.10;50.00;;;;;;5128771;28;20054;-68
2022/06/13 17:32:07;;;;;;;1.55;0.28;;;21.10;50.30;;;;;;5128142;28;20108;-69
2022/06/13 17:34:22;;;;;;;4.05;0.30;;;21.00;50.30;;;;;;5128501;27;20048;-68
2022/06/13 17:36:49;;;;;;;2.88;0.40;;;21.00;50.40;;;;;;5128528;28;20446;-69
2022/06/13 17:39:15;;;;;;;1.35;0.10;;;21.00;50.40;;;;;;5145597;27;20073;-69
2022/06/13 17:41:42;;;;;;;2.47;0.40;;;21.00;50.40;;;;;;5128627;28;20035;-69
2022/06/13 17:44:09;;;;;;;3.35;0.32;;;21.00;50.40;;;;;;5128685;28;20421;-69
2022/06/13 17:46:38;;;;;;;2.97;0.20;;;21.00;50.50;;;;;;5127471;28;20521;-68
2022/06/13 17:49:05;;;;;;;2.58;0.32;;;20.90;50.40;;;;;;5128283;28;20043;-69
2022/06/13 17:51:30;;;;;;;0.88;0.20;;;20.90;50.60;;;;;;5128060;28;20482;-68
2022/06/13 17:54:00;;;;;;;0.50;0.20;;;20.90;50.60;;;;;;5128312;28;20035;-68
2022/06/13 17:56:26;;;;;;;1.30;0.27;;;20.80;50.60;;;;;;5129757;28;20031;-68
2022/06/13 17:58:52;;;;;;;1.98;0.32;;;20.90;50.80;;;;;;5127874;28;20043;-68
2022/06/13 18:01:19;;;;;;;2.15;0.20;;;20.80;50.80;;;;;;5128040;28;20057;-69
2022/06/13 18:03:46;;;;;;;2.13;0.38;;;20.80;50.90;;;;;;5128251;28;20031;-69
2022/06/13 18:06:12;;;;;;;1.05;0.20;;;20.80;50.90;;;;;;5129039;27;20058;-69
2022/06/13 18:08:43;;;;;;;3.30;0.30;;;20.80;51.00;;;;;;5129234;28;20039;-69
2022/06/13 18:11:09;;;;;;;1.13;0.20;;;20.80;51.00;;;;;;5127804;28;20118;-69
2022/06/13 18:13:35;;;;;;;1.80;0.30;;;20.70;51.00;;;;;;5127777;28;20043;-68
2022/06/13 18:16:00;;;;;;;1.85;0.22;;;20.80;51.10;;;;;;5127558;28;20043;-69
2022/06/13 18:18:31;;;;;;;2.05;0.30;;;20.70;51.00;;;;;;5145110;27;20118;-69
2022/06/13 18:20:58;;;;;;;1.50;0.35;;;20.70;51.10;;;;;;5127436;28;20043;-69
2022/06/13 18:23:25;;;;;;;1.83;0.20;;;20.70;51.20;;;;;;5129259;27;20035;-70
2022/06/13 18:25:51;;;;;;;3.70;0.28;;;20.70;51.20;;;;;;5124567;27;20047;-69
2022/06/13 18:28:22;;;;;;;1.38;0.20;;;20.70;51.20;;;;;;5115213;28;20043;-69
2022/06/13 18:30:50;;;;;;;;;;;20.60;51.20;;;;;;5114102;28;20086;-68
2022/06/13 18:33:15;;;;;;;2.88;0.35;;;20.60;52.00;;;;;;5115117;28;19916;-69
2022/06/13 18:35:44;;;;;;;2.08;0.22;;;20.60;51.30;;;;;;5114949;28;20097;-69
2022/06/13 18:38:10;;;;;;;2.00;0.20;;;20.70;51.40;;;;;;5114962;28;20388;-69
2022/06/13 18:40:37;;;;;;;4.55;0.40;;;20.60;51.40;;;;;;5113992;28;20042;-69
2022/06/13 18:43:06;;;;;;;2.42;0.30;;;20.60;51.50;;;;;;5111815;28;20046;-69
2022/06/13 18:45:32;;;;;;;2.67;0.20;;;20.60;51.50;;;;;;5113484;28;20054;-70
2022/06/13 18:47:59;;;;;;;2.15;0.20;;;20.50;51.50;;;;;;5113590;28;20118;-68
2022/06/13 18:50:25;;;;;;;2.08;0.30;;;20.50;51.60;;;;;;5113305;28;20047;-69
2022/06/13 18:52:51;;;;;;;1.63;0.30;;;20.50;51.60;;;;;;5113663;28;20042;-69
2022/06/13 18:55:19;;;;;;;2.15;0.30;;;20.50;51.70;;;;;;5113430;28;20528;-69
2022/06/13 18:57:45;;;;;;;2.78;0.30;;;20.50;51.80;;;;;;5114710;28;20039;-70